createdAt,value
2023-03-26T00:05:10.208Z,1001
2023-03-26T00:17:10.255Z,1001
2023-03-26T00:29:10.732Z,1001
2023-03-26T00:41:10.254Z,1001
2023-03-26T00:53:10.197Z,1001
2023-03-26T01:05:00.271Z,1001
2023-03-26T01:17:00.168Z,1001
2023-03-26T01:29:00.340Z,1001
2023-03-26T01:41:00.313Z,1001
2023-03-26T01:53:00.251Z,1001
2023-03-26T02:05:00.189Z,1001
2023-03-26T02:17:00.396Z,1001
2023-03-26T02:29:00.311Z,1001
2023-03-26T02:41:00.286Z,1001
2023-03-26T02:53:00.417Z,1001
2023-03-26T03:05:00.397Z,1001
2023-03-26T03:17:00.384Z,1001
2023-03-26T03:29:00.310Z,1001
2023-03-26T03:41:00.449Z,1001
2023-03-26T03:53:00.431Z,1001
2023-03-26T04:05:00.353Z,1001
2023-03-26T04:17:00.411Z,1001
2023-03-26T04:29:00.493Z,1001
2023-03-26T04:41:01.637Z,1001
2023-03-26T04:53:00.427Z,1001
2023-03-26T05:05:00.399Z,1001
2023-03-26T05:17:00.580Z,1002
2023-03-26T05:29:00.520Z,1002
2023-03-26T05:41:00.457Z,1002
2023-03-26T05:53:00.674Z,1002
2023-03-26T06:05:00.559Z,1002
2023-03-26T06:17:00.591Z,1002
2023-03-26T06:29:00.478Z,1003
2023-03-26T06:41:00.671Z,1003
2023-03-26T06:53:00.617Z,1003
2023-03-26T07:05:00.598Z,1004
2023-03-26T07:17:00.547Z,1004
2023-03-26T07:29:03.590Z,1004
2023-03-26T07:41:00.628Z,1004
2023-03-26T07:53:00.605Z,1005
2023-03-26T08:05:00.849Z,1005
2023-03-26T08:17:00.734Z,1005
2023-03-26T08:29:00.643Z,1005
2023-03-26T08:41:00.627Z,1005
2023-03-26T08:53:00.759Z,1006
2023-03-26T09:05:00.742Z,1006
2023-03-26T09:17:01.027Z,1007
2023-03-26T09:29:00.656Z,1007
2023-03-26T09:41:00.797Z,1007
2023-03-26T09:53:00.784Z,1007
2023-03-26T10:05:00.753Z,1008
2023-03-26T10:17:00.955Z,1009
2023-03-26T10:29:00.822Z,1009
2023-03-26T10:41:00.809Z,1009
2023-03-26T10:53:00.736Z,1010
2023-03-26T11:05:00.991Z,1010
2023-03-26T11:17:01.004Z,1010
2023-03-26T11:29:03.166Z,1011
2023-03-26T11:41:00.967Z,1011
2023-03-26T11:53:00.981Z,1012
2023-03-26T12:05:00.917Z,1012
2023-03-26T12:17:00.964Z,1012
2023-03-26T12:29:00.839Z,1012
2023-03-26T12:41:01.345Z,1012
2023-03-26T12:53:00.946Z,1013
2023-03-26T13:05:05.965Z,1013
2023-03-26T13:17:01.040Z,1013
2023-03-26T13:29:00.979Z,1014
2023-03-26T13:41:01.065Z,1013
2023-03-26T13:53:01.069Z,1013
2023-03-26T14:05:01.000Z,1013
2023-03-26T14:17:01.007Z,1014
2023-03-26T14:29:01.120Z,1014
2023-03-26T14:41:01.152Z,1014
2023-03-26T14:53:01.776Z,1014
2023-03-26T15:05:01.020Z,1014
2023-03-26T15:17:01.193Z,1014
2023-03-26T15:29:01.149Z,1014
2023-03-26T15:41:01.055Z,1015
2023-03-26T15:53:01.038Z,1015
2023-03-26T16:05:01.270Z,1015
2023-03-26T16:17:01.217Z,1015
2023-03-26T16:29:01.074Z,1015
2023-03-26T16:41:01.432Z,1015
2023-03-26T16:53:01.203Z,1016
2023-03-26T17:29:01.308Z,1016
2023-03-26T17:41:01.247Z,1016
2023-03-26T17:53:01.275Z,1016
2023-03-26T18:05:01.149Z,1016
2023-03-26T18:17:01.407Z,1017
2023-03-26T18:29:01.582Z,1017
2023-03-26T18:41:01.307Z,1017
2023-03-26T18:53:01.227Z,1017
2023-03-26T19:05:01.367Z,1017
2023-03-26T19:17:01.478Z,1018
2023-03-26T19:29:01.288Z,1018
2023-03-26T19:41:01.420Z,1018
2023-03-26T19:53:13.003Z,1018
2023-03-26T20:05:01.337Z,1018
2023-03-26T20:17:01.394Z,1018
2023-03-26T20:29:01.449Z,1019
2023-03-26T20:41:01.433Z,1019
2023-03-26T20:53:01.406Z,1019
2023-03-26T21:05:01.336Z,1019
2023-03-26T21:17:01.537Z,1019
2023-03-26T21:29:01.523Z,1019
2023-03-26T21:41:01.540Z,1019
2023-03-26T21:53:01.606Z,1019
2023-03-26T22:05:02.254Z,1019
2023-03-26T22:17:01.466Z,1020
2023-03-26T22:29:01.407Z,1020
2023-03-26T22:41:01.570Z,1020
2023-03-26T22:53:01.528Z,1020
2023-03-26T23:05:01.505Z,1020
2023-03-26T23:17:01.640Z,1020
2023-03-26T23:29:01.604Z,1020
2023-03-26T23:41:01.538Z,1020
2023-03-26T23:53:01.542Z,1020
